createdAt,value
2022-11-24T00:02:31.548Z,16.87
2022-11-24T00:05:38.640Z,17.25
2022-11-24T00:08:42.177Z,16.40
2022-11-24T00:11:44.308Z,15.95
2022-11-24T00:14:47.083Z,15.05
2022-11-24T00:17:49.239Z,15.27
2022-11-24T00:20:54.488Z,15.55
2022-11-24T00:23:56.918Z,16.33
2022-11-24T00:26:59.288Z,14.88
2022-11-24T00:30:01.951Z,15.32
2022-11-24T00:33:04.197Z,14.57
2022-11-24T00:36:06.463Z,14.13
2022-11-24T00:39:12.577Z,16.15
2022-11-24T00:42:14.963Z,15.82
2022-11-24T00:45:17.120Z,15.55
2022-11-24T00:48:19.283Z,15.00
2022-11-24T00:51:22.616Z,15.50
2022-11-24T00:54:24.750Z,14.13
2022-11-24T00:57:26.873Z,14.35
2022-11-24T01:00:29.738Z,15.47
2022-11-24T01:03:32.029Z,16.80
2022-11-24T01:06:35.746Z,15.35
2022-11-24T01:09:38.011Z,16.30
2022-11-24T01:12:40.144Z,17.88
2022-11-24T01:15:42.325Z,16.05
2022-11-24T01:18:44.835Z,15.17
2022-11-24T01:21:47.246Z,14.68
2022-11-24T01:24:49.366Z,15.48
2022-11-24T01:27:51.512Z,15.40
2022-11-24T01:31:00.751Z,14.50
2022-11-24T01:34:03.042Z,14.83
2022-11-24T01:37:05.204Z,16.00
2022-11-24T01:40:07.822Z,16.60
2022-11-24T01:43:20.708Z,16.05
2022-11-24T01:46:30.941Z,16.20
2022-11-24T01:49:39.567Z,15.87
2022-11-24T01:52:45.136Z,16.45
2022-11-24T01:55:47.790Z,18.13
2022-11-24T01:58:51.105Z,16.55
2022-11-24T02:01:53.601Z,17.57
2022-11-24T02:05:00.175Z,16.37
2022-11-24T02:08:02.743Z,15.82
2022-11-24T02:11:05.264Z,16.00
2022-11-24T02:14:08.154Z,16.70
2022-11-24T02:17:10.359Z,17.73
2022-11-24T02:20:13.311Z,17.90
2022-11-24T02:23:28.404Z,18.65
2022-11-24T02:26:30.502Z,17.98
2022-11-24T02:29:32.736Z,18.65
2022-11-24T02:32:34.968Z,17.02
2022-11-24T02:35:37.144Z,16.60
2022-11-24T02:38:39.242Z,17.20
2022-11-24T02:41:53.698Z,17.60
2022-11-24T02:44:57.656Z,18.40
2022-11-24T02:48:00.033Z,18.02
2022-11-24T02:51:02.445Z,18.70
2022-11-24T02:54:04.935Z,18.42
2022-11-24T02:57:07.159Z,21.08
2022-11-24T03:00:09.803Z,22.13
2022-11-24T03:03:12.185Z,21.27
2022-11-24T03:06:14.616Z,22.10
2022-11-24T03:09:16.812Z,22.27
2022-11-24T03:12:18.997Z,21.23
2022-11-24T03:15:21.714Z,25.75
2022-11-24T03:18:23.886Z,23.40
2022-11-24T03:21:26.070Z,25.87
2022-11-24T03:24:28.230Z,24.25
2022-11-24T03:27:30.635Z,23.98
2022-11-24T03:30:32.805Z,26.60
2022-11-24T03:33:35.300Z,26.15
2022-11-24T03:36:37.722Z,26.40
2022-11-24T03:39:39.954Z,26.90
2022-11-24T03:42:42.123Z,30.65
2022-11-24T03:45:47.935Z,26.35
2022-11-24T03:48:50.094Z,26.77
2022-11-24T03:51:54.144Z,27.23
2022-11-24T03:54:56.519Z,28.25
2022-11-24T03:57:58.954Z,28.85
2022-11-24T04:01:01.118Z,27.83
2022-11-24T04:04:03.248Z,29.70
2022-11-24T04:07:05.452Z,28.73
2022-11-24T04:10:07.946Z,31.13
2022-11-24T04:13:14.098Z,29.83
2022-11-24T04:16:16.269Z,27.35
2022-11-24T04:19:18.717Z,33.08
2022-11-24T04:22:21.098Z,28.63
2022-11-24T04:25:23.241Z,27.00
2022-11-24T04:28:26.126Z,25.20
2022-11-24T04:31:28.291Z,26.30
2022-11-24T04:34:30.461Z,25.40
2022-11-24T04:37:32.992Z,26.17
2022-11-24T04:40:35.119Z,26.98
2022-11-24T04:43:40.578Z,26.25
2022-11-24T04:46:43.273Z,26.83
2022-11-24T04:49:46.837Z,25.77
2022-11-24T04:52:49.084Z,26.37
2022-11-24T04:55:51.188Z,25.35
2022-11-24T04:58:53.347Z,23.77
2022-11-24T05:01:55.498Z,24.38
2022-11-24T05:04:57.705Z,26.83
2022-11-24T05:08:00.333Z,25.17
2022-11-24T05:11:06.596Z,25.90
2022-11-24T05:14:08.710Z,25.80
2022-11-24T05:17:10.895Z,26.88
2022-11-24T05:20:13.080Z,27.07
2022-11-24T05:23:15.766Z,30.53
2022-11-24T05:26:18.447Z,29.15
2022-11-24T05:29:20.896Z,28.10
2022-11-24T05:32:23.259Z,26.80
2022-11-24T05:35:25.524Z,27.55
2022-11-24T05:38:27.844Z,28.27
2022-11-24T05:41:30.126Z,28.10
2022-11-24T05:44:32.849Z,27.92
2022-11-24T05:47:35.542Z,24.77
2022-11-24T05:50:37.787Z,27.50
2022-11-24T05:53:40.069Z,28.57
2022-11-24T05:56:42.240Z,27.60
2022-11-24T05:59:44.792Z,28.58
2022-11-24T06:02:47.165Z,26.67
2022-11-24T06:05:49.497Z,27.58
2022-11-24T06:08:51.760Z,26.23
2022-11-24T06:11:54.089Z,25.95
2022-11-24T06:14:56.392Z,25.00
2022-11-24T06:17:58.699Z,25.38
2022-11-24T06:21:10.640Z,25.60
2022-11-24T06:24:14.798Z,26.17
2022-11-24T06:27:17.454Z,23.02
2022-11-24T06:30:19.779Z,23.35
2022-11-24T06:33:22.018Z,23.80
2022-11-24T06:36:24.392Z,22.67
2022-11-24T06:39:26.868Z,24.70
2022-11-24T06:42:29.357Z,22.63
2022-11-24T06:45:33.614Z,24.45
2022-11-24T06:48:42.671Z,24.25
2022-11-24T06:51:51.784Z,23.27
2022-11-24T06:55:03.803Z,23.17
2022-11-24T06:58:09.840Z,23.98
2022-11-24T07:01:22.365Z,22.52
2022-11-24T07:04:24.738Z,22.67
2022-11-24T07:07:27.232Z,21.13
2022-11-24T07:10:29.832Z,23.77
2022-11-24T07:13:34.896Z,19.90
2022-11-24T07:16:40.084Z,21.60
2022-11-24T07:19:42.464Z,21.40
2022-11-24T07:22:44.882Z,19.65
2022-11-24T07:25:47.285Z,19.87
2022-11-24T07:28:49.789Z,20.98
2022-11-24T07:31:52.577Z,19.65
2022-11-24T07:34:54.961Z,17.70
2022-11-24T07:37:58.405Z,18.85
2022-11-24T07:41:08.396Z,17.60
2022-11-24T07:44:10.751Z,15.70
2022-11-24T07:47:16.799Z,15.90
2022-11-24T07:50:22.651Z,17.95
2022-11-24T07:53:27.959Z,17.00
2022-11-24T07:56:32.485Z,16.53
2022-11-24T07:59:47.828Z,17.08
2022-11-24T08:02:51.727Z,17.98
2022-11-24T08:09:20.614Z,15.05
2022-11-24T08:12:23.121Z,18.67
2022-11-24T08:15:25.572Z,16.05
2022-11-24T08:18:28.101Z,15.40
2022-11-24T08:21:30.398Z,15.18
2022-11-24T08:24:32.986Z,15.50
2022-11-24T08:27:35.484Z,15.03
2022-11-24T08:30:37.705Z,15.48
2022-11-24T08:33:40.282Z,15.65
2022-11-24T08:36:43.396Z,15.65
2022-11-24T08:39:46.320Z,14.52
2022-11-24T08:42:49.022Z,15.30
2022-11-24T08:45:51.427Z,17.08
2022-11-24T08:48:57.279Z,14.85
2022-11-24T08:52:02.822Z,14.75
2022-11-24T08:56:11.257Z,17.10
2022-11-24T08:59:14.493Z,16.43
2022-11-24T09:02:24.333Z,16.27
2022-11-24T09:05:51.342Z,16.60
2022-11-24T09:08:49.553Z,16.55
2022-11-24T09:11:52.407Z,18.45
2022-11-24T09:14:55.960Z,16.57
2022-11-24T09:18:00.311Z,17.73
2022-11-24T09:21:21.316Z,16.25
2022-11-24T09:24:23.651Z,15.80
2022-11-24T09:27:26.907Z,17.35
2022-11-24T09:30:31.004Z,16.90
2022-11-24T09:33:33.557Z,16.30
2022-11-24T09:36:36.733Z,16.80
2022-11-24T09:39:39.632Z,15.65
2022-11-24T09:42:53.257Z,16.75
2022-11-24T09:46:06.134Z,18.80
2022-11-24T09:49:12.910Z,17.63
2022-11-24T09:52:18.706Z,18.27
2022-11-24T09:55:25.877Z,18.17
2022-11-24T09:58:34.348Z,14.93
2022-11-24T10:01:37.708Z,15.43
2022-11-24T10:04:42.271Z,15.73
2022-11-24T10:07:51.369Z,15.65
2022-11-24T10:10:59.690Z,15.52
2022-11-24T10:14:08.333Z,16.25
2022-11-24T10:17:31.967Z,14.80
2022-11-24T10:20:49.753Z,15.02
2022-11-24T10:24:08.367Z,15.35
2022-11-24T10:27:22.579Z,15.50
2022-11-24T10:30:30.944Z,16.35
2022-11-24T10:33:33.931Z,15.37
2022-11-24T10:36:44.000Z,15.55
2022-11-24T10:40:00.289Z,15.27
2022-11-24T10:43:09.690Z,15.75
2022-11-24T10:46:15.856Z,14.32
2022-11-24T10:49:20.462Z,14.33
2022-11-24T10:52:27.413Z,15.02
2022-11-24T10:55:48.453Z,13.88
2022-11-24T10:58:51.939Z,15.05
2022-11-24T11:01:56.003Z,14.48
2022-11-24T11:04:58.868Z,13.77
2022-11-24T11:08:14.769Z,14.40
2022-11-24T11:11:17.061Z,14.70
2022-11-24T11:14:37.879Z,14.20
2022-11-24T11:17:41.463Z,14.48
2022-11-24T11:20:56.614Z,15.17
2022-11-24T11:24:00.026Z,14.02
2022-11-24T11:27:04.327Z,13.73
2022-11-24T11:34:14.418Z,13.30
2022-11-24T11:37:20.906Z,10.53
2022-11-24T11:40:26.377Z,13.15
2022-11-24T11:43:34.514Z,12.68
2022-11-24T11:46:38.776Z,14.55
2022-11-24T11:49:45.656Z,12.93
2022-11-24T11:53:02.402Z,12.63
2022-11-24T11:56:18.814Z,13.18
2022-11-24T11:59:41.572Z,12.43
2022-11-24T12:02:51.558Z,13.65
2022-11-24T12:06:00.710Z,12.55
2022-11-24T12:09:20.797Z,11.73
2022-11-24T12:12:49.284Z,11.52
2022-11-24T12:15:53.091Z,11.80
2022-11-24T12:19:06.513Z,11.20
2022-11-24T12:22:31.094Z,12.35
2022-11-24T12:26:07.719Z,11.70
2022-11-24T12:29:26.461Z,10.38
2022-11-24T12:32:36.512Z,11.05
2022-11-24T12:39:57.196Z,11.77
2022-11-24T12:43:00.698Z,11.10
2022-11-24T12:46:22.490Z,11.02
2022-11-24T12:49:31.873Z,11.05
2022-11-24T12:52:45.079Z,10.90
2022-11-24T12:55:49.380Z,10.75
2022-11-24T12:58:54.750Z,9.93
2022-11-24T13:02:16.184Z,13.35
2022-11-24T13:05:43.937Z,11.07
2022-11-24T13:08:46.464Z,10.40
2022-11-24T13:11:52.397Z,11.02
2022-11-24T13:14:55.430Z,10.97
2022-11-24T13:18:07.107Z,10.77
2022-11-24T13:21:55.247Z,9.55
2022-11-24T13:25:23.696Z,9.88
2022-11-24T13:29:01.742Z,10.57
2022-11-24T13:32:06.402Z,10.37
2022-11-24T13:35:15.888Z,10.50
2022-11-24T13:38:38.254Z,10.48
2022-11-24T13:41:40.688Z,10.30
2022-11-24T13:44:46.176Z,9.95
2022-11-24T13:47:51.765Z,11.10
2022-11-24T13:50:54.260Z,9.80
2022-11-24T13:53:57.749Z,10.00
2022-11-24T13:57:18.962Z,10.02
2022-11-24T14:00:32.425Z,8.73
2022-11-24T14:04:28.166Z,9.20
2022-11-24T14:07:15.446Z,9.75
2022-11-24T14:10:38.596Z,9.45
2022-11-24T14:13:40.959Z,10.48
2022-11-24T14:16:43.308Z,8.90
2022-11-24T14:19:47.489Z,8.70
2022-11-24T14:22:50.335Z,8.63
2022-11-24T14:25:52.974Z,9.13
2022-11-24T14:29:02.756Z,9.88
2022-11-24T14:32:16.100Z,8.75
2022-11-24T14:35:26.955Z,8.70
2022-11-24T14:38:29.999Z,9.65
2022-11-24T14:41:33.185Z,8.88
2022-11-24T14:44:45.535Z,7.90
2022-11-24T14:47:48.094Z,9.63
2022-11-24T14:51:15.313Z,8.37
2022-11-24T14:54:19.426Z,8.25
2022-11-24T14:57:37.814Z,9.73
2022-11-24T15:00:40.265Z,8.10
2022-11-24T15:03:42.646Z,9.20
2022-11-24T15:06:47.194Z,10.20
2022-11-24T15:09:54.345Z,10.05
2022-11-24T15:12:58.076Z,9.75
2022-11-24T15:16:20.004Z,9.55
2022-11-24T15:19:24.343Z,9.02
2022-11-24T15:22:27.680Z,11.27
2022-11-24T15:25:33.833Z,10.80
2022-11-24T15:28:36.387Z,10.57
2022-11-24T15:31:44.222Z,10.65
2022-11-24T15:34:50.138Z,12.38
2022-11-24T15:37:52.463Z,11.80
2022-11-24T15:40:55.458Z,11.95
2022-11-24T15:44:00.633Z,11.88
2022-11-24T15:47:03.275Z,10.68
2022-11-24T15:50:05.841Z,11.30
2022-11-24T15:53:19.133Z,11.57
2022-11-24T15:56:24.653Z,10.70
2022-11-24T15:59:27.055Z,10.25
2022-11-24T16:02:30.283Z,11.65
2022-11-24T16:05:32.698Z,10.95
2022-11-24T16:08:34.896Z,10.80
2022-11-24T16:11:37.408Z,11.63
2022-11-24T16:14:39.819Z,11.10
2022-11-24T16:17:42.384Z,12.75
2022-11-24T16:20:44.698Z,11.13
2022-11-24T16:23:47.953Z,9.90
2022-11-24T16:26:50.317Z,11.18
2022-11-24T16:29:52.789Z,11.77
2022-11-24T16:32:55.184Z,12.20
2022-11-24T16:35:57.497Z,10.13
2022-11-24T16:38:59.975Z,12.27
2022-11-24T16:42:02.641Z,10.73
2022-11-24T16:45:05.280Z,11.85
2022-11-24T16:48:07.503Z,12.05
2022-11-24T16:51:12.870Z,11.65
2022-11-24T16:54:15.262Z,11.37
2022-11-24T16:57:17.629Z,12.00
2022-11-24T17:00:21.044Z,12.95
2022-11-24T17:03:23.433Z,11.25
2022-11-24T17:06:26.955Z,12.82
2022-11-24T17:09:29.273Z,11.70
2022-11-24T17:12:31.686Z,11.77
2022-11-24T17:15:39.174Z,13.23
2022-11-24T17:18:45.872Z,12.00
2022-11-24T17:21:48.161Z,12.68
2022-11-24T17:24:50.446Z,11.90
2022-11-24T17:27:53.485Z,13.70
2022-11-24T17:30:56.186Z,12.45
2022-11-24T17:33:59.015Z,13.65
2022-11-24T17:37:02.098Z,12.00
2022-11-24T17:40:27.234Z,12.03
2022-11-24T17:43:27.626Z,11.35
2022-11-24T17:46:30.665Z,11.18
2022-11-24T17:49:33.675Z,11.15
2022-11-24T17:52:35.900Z,12.80
2022-11-24T17:55:38.238Z,12.07
2022-11-24T17:58:43.162Z,12.43
2022-11-24T18:01:45.880Z,11.13
2022-11-24T18:04:48.340Z,12.25
2022-11-24T18:07:50.790Z,12.73
2022-11-24T18:10:53.216Z,11.47
2022-11-24T18:14:00.270Z,11.98
2022-11-24T18:17:03.799Z,11.23
2022-11-24T18:20:07.248Z,10.63
2022-11-24T18:23:09.545Z,12.98
2022-11-24T18:26:14.954Z,10.40
2022-11-24T18:29:17.404Z,13.52
2022-11-24T18:32:20.169Z,13.00
2022-11-24T18:35:22.694Z,13.00
2022-11-24T18:38:25.967Z,13.90
2022-11-24T18:41:28.267Z,12.37
2022-11-24T18:44:30.608Z,12.32
2022-11-24T18:47:33.413Z,13.60
2022-11-24T18:50:35.867Z,14.55
2022-11-24T18:53:38.392Z,15.03
2022-11-24T18:56:40.753Z,12.80
2022-11-24T18:59:43.109Z,12.60
2022-11-24T19:02:49.970Z,11.05
2022-11-24T19:05:52.297Z,12.30
2022-11-24T19:08:54.948Z,14.23
2022-11-24T19:11:57.454Z,13.57
2022-11-24T19:14:59.983Z,12.20
2022-11-24T19:18:02.788Z,14.45
2022-11-24T19:21:05.791Z,12.77
2022-11-24T19:24:10.208Z,12.68
2022-11-24T19:27:14.501Z,12.13
2022-11-24T19:30:17.312Z,12.25
2022-11-24T19:33:21.598Z,12.93
2022-11-24T19:36:24.401Z,13.02
2022-11-24T19:39:27.011Z,12.33
2022-11-24T19:42:29.466Z,13.60
2022-11-24T19:45:33.124Z,13.35
2022-11-24T19:48:40.113Z,13.05
2022-11-24T19:51:42.706Z,14.38
2022-11-24T19:54:46.034Z,13.87
2022-11-24T19:57:48.465Z,15.10
2022-11-24T20:00:50.740Z,13.88
2022-11-24T20:04:07.687Z,13.90
2022-11-24T20:07:11.214Z,13.40
2022-11-24T20:10:13.538Z,13.17
2022-11-24T20:13:16.014Z,14.43
2022-11-24T20:16:31.437Z,14.93
2022-11-24T20:19:33.761Z,14.55
2022-11-24T20:22:36.227Z,15.70
2022-11-24T20:25:38.911Z,14.67
2022-11-24T20:28:41.723Z,13.73
2022-11-24T20:31:45.792Z,15.98
2022-11-24T20:34:49.362Z,14.50
2022-11-24T20:37:53.340Z,14.05
2022-11-24T20:41:04.599Z,14.63
2022-11-24T20:44:13.238Z,14.17
2022-11-24T20:47:15.929Z,15.10
2022-11-24T20:50:18.458Z,14.23
2022-11-24T20:53:21.073Z,13.50
2022-11-24T20:56:24.721Z,14.47
2022-11-24T20:59:27.107Z,12.97
2022-11-24T21:02:30.081Z,14.18
2022-11-24T21:05:32.473Z,14.65
2022-11-24T21:08:36.088Z,14.07
2022-11-24T21:11:38.976Z,14.97
2022-11-24T21:14:41.696Z,15.13
2022-11-24T21:17:44.186Z,14.43
2022-11-24T21:20:46.823Z,14.90
2022-11-24T21:23:49.493Z,13.45
2022-11-24T21:26:53.006Z,13.20
2022-11-24T21:29:55.345Z,14.97
2022-11-24T21:32:57.685Z,14.75
2022-11-24T21:36:04.295Z,14.02
2022-11-24T21:39:06.858Z,15.55
2022-11-24T21:42:09.071Z,13.97
2022-11-24T21:45:12.140Z,14.77
2022-11-24T21:48:14.388Z,15.50
2022-11-24T21:51:17.848Z,14.88
2022-11-24T21:54:20.378Z,14.55
2022-11-24T21:57:23.221Z,13.80
2022-11-24T22:00:25.771Z,15.73
2022-11-24T22:03:27.950Z,13.75
2022-11-24T22:06:32.060Z,14.93
2022-11-24T22:09:34.620Z,15.18
2022-11-24T22:12:36.908Z,15.10
2022-11-24T22:15:40.383Z,14.77
2022-11-24T22:18:43.331Z,15.80
2022-11-24T22:21:45.896Z,14.30
2022-11-24T22:24:48.146Z,15.15
2022-11-24T22:27:50.462Z,18.43
2022-11-24T22:30:52.763Z,17.20
2022-11-24T22:33:55.716Z,18.25
2022-11-24T22:36:57.881Z,16.95
2022-11-24T22:40:00.140Z,16.45
2022-11-24T22:43:02.654Z,16.63
2022-11-24T22:46:05.826Z,14.83
2022-11-24T22:49:10.089Z,15.70
2022-11-24T22:52:14.068Z,16.02
2022-11-24T22:55:16.564Z,15.52
2022-11-24T22:58:18.747Z,15.57
2022-11-24T23:01:22.306Z,14.67
2022-11-24T23:04:24.562Z,15.20
2022-11-24T23:07:27.207Z,15.27
2022-11-24T23:10:29.416Z,15.43
2022-11-24T23:13:31.603Z,14.97
2022-11-24T23:16:33.848Z,14.67
2022-11-24T23:19:36.351Z,15.65
2022-11-24T23:22:38.514Z,16.17
2022-11-24T23:25:40.882Z,14.95
2022-11-24T23:28:46.029Z,14.30
2022-11-24T23:31:48.330Z,16.10
2022-11-24T23:34:50.958Z,16.13
2022-11-24T23:38:06.940Z,14.07
2022-11-24T23:41:11.676Z,13.80
2022-11-24T23:44:13.882Z,14.87
2022-11-24T23:47:16.410Z,15.43
2022-11-24T23:50:18.734Z,17.77
2022-11-24T23:53:20.995Z,13.75
2022-11-24T23:56:24.417Z,15.45
2022-11-24T23:59:27.051Z,14.80
